sensor_id;sensor_type;location;lat;lon;timestamp;temperature;humidity
28193;DHT22;15473;50.840;3.396;2023-03-16T00:01:21;7.00;99.90
28193;DHT22;15473;50.840;3.396;2023-03-16T00:04:08;7.00;99.90
28193;DHT22;15473;50.840;3.396;2023-03-16T00:06:58;7.00;99.90
28193;DHT22;15473;50.840;3.396;2023-03-16T00:09:45;7.00;99.90
28193;DHT22;15473;50.840;3.396;2023-03-16T00:12:35;7.00;99.90
28193;DHT22;15473;50.840;3.396;2023-03-16T00:15:25;7.00;99.90
28193;DHT22;15473;50.840;3.396;2023-03-16T00:18:11;7.00;99.90
28193;DHT22;15473;50.840;3.396;2023-03-16T00:24:06;7.00;99.90
28193;DHT22;15473;50.840;3.396;2023-03-16T00:26:52;7.00;99.90
28193;DHT22;15473;50.840;3.396;2023-03-16T00:29:40;7.00;99.90
28193;DHT22;15473;50.840;3.396;2023-03-16T00:32:30;7.00;99.90
28193;DHT22;15473;50.840;3.396;2023-03-16T00:35:17;7.00;99.90
28193;DHT22;15473;50.840;3.396;2023-03-16T00:38:10;7.00;99.90
28193;DHT22;15473;50.840;3.396;2023-03-16T00:40:58;7.00;99.90
28193;DHT22;15473;50.840;3.396;2023-03-16T00:43:44;7.00;99.90
28193;DHT22;15473;50.840;3.396;2023-03-16T00:46:31;7.00;99.90
28193;DHT22;15473;50.840;3.396;2023-03-16T00:49:17;7.00;99.90
28193;DHT22;15473;50.840;3.396;2023-03-16T00:52:05;7.00;99.90
28193;DHT22;15473;50.840;3.396;2023-03-16T00:54:52;7.00;99.90
28193;DHT22;15473;50.840;3.396;2023-03-16T00:57:39;7.00;99.90
28193;DHT22;15473;50.840;3.396;2023-03-16T01:00:27;6.90;99.90
28193;DHT22;15473;50.840;3.396;2023-03-16T01:03:14;6.90;99.90
28193;DHT22;15473;50.840;3.396;2023-03-16T01:06:07;6.90;99.90
28193;DHT22;15473;50.840;3.396;2023-03-16T01:08:56;6.90;99.90
28193;DHT22;15473;50.840;3.396;2023-03-16T01:11:49;6.90;99.90
28193;DHT22;15473;50.840;3.396;2023-03-16T01:14:38;6.90;99.90
28193;DHT22;15473;50.840;3.396;2023-03-16T01:17:24;6.90;99.90
28193;DHT22;15473;50.840;3.396;2023-03-16T01:20:11;6.90;99.90
28193;DHT22;15473;50.840;3.396;2023-03-16T01:23:03;6.90;99.90
28193;DHT22;15473;50.840;3.396;2023-03-16T01:25:50;6.90;99.90
28193;DHT22;15473;50.840;3.396;2023-03-16T01:28:39;6.80;99.90
28193;DHT22;15473;50.840;3.396;2023-03-16T01:31:27;6.80;99.90
28193;DHT22;15473;50.840;3.396;2023-03-16T01:34:21;6.90;99.90
28193;DHT22;15473;50.840;3.396;2023-03-16T01:37:14;6.80;99.90
28193;DHT22;15473;50.840;3.396;2023-03-16T01:40:01;6.80;99.90
28193;DHT22;15473;50.840;3.396;2023-03-16T01:42:59;6.80;99.90
28193;DHT22;15473;50.840;3.396;2023-03-16T01:49:23;6.80;99.90
28193;DHT22;15473;50.840;3.396;2023-03-16T01:52:25;6.80;99.90
28193;DHT22;15473;50.840;3.396;2023-03-16T01:55:18;6.70;99.90
28193;DHT22;15473;50.840;3.396;2023-03-16T01:58:04;6.70;99.90
28193;DHT22;15473;50.840;3.396;2023-03-16T02:07:31;6.70;99.90
28193;DHT22;15473;50.840;3.396;2023-03-16T02:10:19;6.70;99.90
28193;DHT22;15473;50.840;3.396;2023-03-16T02:13:08;6.70;99.90
28193;DHT22;15473;50.840;3.396;2023-03-16T02:15:56;6.70;99.90
28193;DHT22;15473;50.840;3.396;2023-03-16T02:18:48;6.70;99.90
28193;DHT22;15473;50.840;3.396;2023-03-16T02:21:53;6.70;99.90
28193;DHT22;15473;50.840;3.396;2023-03-16T02:24:38;6.70;99.90
28193;DHT22;15473;50.840;3.396;2023-03-16T02:30:38;6.60;99.90
28193;DHT22;15473;50.840;3.396;2023-03-16T02:33:28;6.60;99.90
28193;DHT22;15473;50.840;3.396;2023-03-16T02:36:18;6.60;99.90
28193;DHT22;15473;50.840;3.396;2023-03-16T02:39:11;6.60;99.90
28193;DHT22;15473;50.840;3.396;2023-03-16T02:42:04;6.50;99.90
28193;DHT22;15473;50.840;3.396;2023-03-16T02:44:57;6.50;99.90
28193;DHT22;15473;50.840;3.396;2023-03-16T02:47:42;6.50;99.90
28193;DHT22;15473;50.840;3.396;2023-03-16T02:50:30;6.50;99.90
28193;DHT22;15473;50.840;3.396;2023-03-16T02:53:24;6.50;99.90
28193;DHT22;15473;50.840;3.396;2023-03-16T02:56:10;6.50;99.90
28193;DHT22;15473;50.840;3.396;2023-03-16T02:58:56;6.50;99.90
28193;DHT22;15473;50.840;3.396;2023-03-16T03:01:43;6.50;99.90
28193;DHT22;15473;50.840;3.396;2023-03-16T03:04:31;6.40;99.90
28193;DHT22;15473;50.840;3.396;2023-03-16T03:07:20;6.50;99.90
28193;DHT22;15473;50.840;3.396;2023-03-16T03:10:09;6.50;99.90
28193;DHT22;15473;50.840;3.396;2023-03-16T03:12:59;6.50;99.90
28193;DHT22;15473;50.840;3.396;2023-03-16T03:15:52;6.50;99.90
28193;DHT22;15473;50.840;3.396;2023-03-16T03:18:42;6.50;99.90
28193;DHT22;15473;50.840;3.396;2023-03-16T03:21:28;6.40;99.90
28193;DHT22;15473;50.840;3.396;2023-03-16T03:24:15;6.50;99.90
28193;DHT22;15473;50.840;3.396;2023-03-16T03:27:06;6.40;99.90
28193;DHT22;15473;50.840;3.396;2023-03-16T03:29:53;6.40;99.90
28193;DHT22;15473;50.840;3.396;2023-03-16T03:32:39;6.40;99.90
28193;DHT22;15473;50.840;3.396;2023-03-16T03:35:29;6.40;99.90
28193;DHT22;15473;50.840;3.396;2023-03-16T03:41:31;6.40;99.90
28193;DHT22;15473;50.840;3.396;2023-03-16T03:44:17;6.40;99.90
28193;DHT22;15473;50.840;3.396;2023-03-16T03:47:05;6.40;99.90
28193;DHT22;15473;50.840;3.396;2023-03-16T03:49:52;6.40;99.90
28193;DHT22;15473;50.840;3.396;2023-03-16T03:52:38;6.40;99.90
28193;DHT22;15473;50.840;3.396;2023-03-16T03:55:25;6.40;99.90
28193;DHT22;15473;50.840;3.396;2023-03-16T03:58:11;6.40;99.90
28193;DHT22;15473;50.840;3.396;2023-03-16T04:00:59;6.40;99.90
28193;DHT22;15473;50.840;3.396;2023-03-16T04:03:46;6.40;99.90
28193;DHT22;15473;50.840;3.396;2023-03-16T04:06:38;6.40;99.90
28193;DHT22;15473;50.840;3.396;2023-03-16T04:09:32;6.40;99.90
28193;DHT22;15473;50.840;3.396;2023-03-16T04:12:18;6.40;99.90
28193;DHT22;15473;50.840;3.396;2023-03-16T04:15:09;6.30;99.90
28193;DHT22;15473;50.840;3.396;2023-03-16T04:18:03;6.30;99.90
28193;DHT22;15473;50.840;3.396;2023-03-16T04:20:50;6.30;99.90
28193;DHT22;15473;50.840;3.396;2023-03-16T04:23:44;6.30;99.90
28193;DHT22;15473;50.840;3.396;2023-03-16T04:26:31;6.30;99.90
28193;DHT22;15473;50.840;3.396;2023-03-16T04:29:25;6.30;99.90
28193;DHT22;15473;50.840;3.396;2023-03-16T04:32:12;6.30;99.90
28193;DHT22;15473;50.840;3.396;2023-03-16T04:34:58;6.30;99.90
28193;DHT22;15473;50.840;3.396;2023-03-16T04:37:52;6.30;99.90
28193;DHT22;15473;50.840;3.396;2023-03-16T04:40:38;6.30;99.90
28193;DHT22;15473;50.840;3.396;2023-03-16T04:43:25;6.30;99.90
28193;DHT22;15473;50.840;3.396;2023-03-16T04:46:13;6.30;99.90
28193;DHT22;15473;50.840;3.396;2023-03-16T04:48:59;6.30;99.90
28193;DHT22;15473;50.840;3.396;2023-03-16T04:51:46;6.30;99.90
28193;DHT22;15473;50.840;3.396;2023-03-16T04:54:32;6.30;99.90
28193;DHT22;15473;50.840;3.396;2023-03-16T04:57:20;6.30;99.90
28193;DHT22;15473;50.840;3.396;2023-03-16T05:00:07;6.30;99.90
28193;DHT22;15473;50.840;3.396;2023-03-16T05:02:57;6.30;99.90
28193;DHT22;15473;50.840;3.396;2023-03-16T05:05:45;6.30;99.90
28193;DHT22;15473;50.840;3.396;2023-03-16T05:08:33;6.40;99.90
28193;DHT22;15473;50.840;3.396;2023-03-16T05:11:26;6.40;99.90
28193;DHT22;15473;50.840;3.396;2023-03-16T05:14:13;6.40;99.90
28193;DHT22;15473;50.840;3.396;2023-03-16T05:17:00;6.30;99.90
28193;DHT22;15473;50.840;3.396;2023-03-16T05:19:48;6.30;99.90
28193;DHT22;15473;50.840;3.396;2023-03-16T05:22:33;6.30;99.90
28193;DHT22;15473;50.840;3.396;2023-03-16T05:25:20;6.30;99.90
28193;DHT22;15473;50.840;3.396;2023-03-16T05:28:07;6.30;99.90
28193;DHT22;15473;50.840;3.396;2023-03-16T05:30:55;6.20;99.90
28193;DHT22;15473;50.840;3.396;2023-03-16T05:33:42;6.10;99.90
28193;DHT22;15473;50.840;3.396;2023-03-16T05:39:37;6.10;99.90
28193;DHT22;15473;50.840;3.396;2023-03-16T05:42:24;6.00;99.90
28193;DHT22;15473;50.840;3.396;2023-03-16T05:48:21;6.00;99.90
28193;DHT22;15473;50.840;3.396;2023-03-16T05:51:09;5.90;99.90
28193;DHT22;15473;50.840;3.396;2023-03-16T05:53:55;5.90;99.90
28193;DHT22;15473;50.840;3.396;2023-03-16T05:56:45;5.90;99.90
28193;DHT22;15473;50.840;3.396;2023-03-16T05:59:31;5.80;99.90
28193;DHT22;15473;50.840;3.396;2023-03-16T06:02:19;5.90;99.90
28193;DHT22;15473;50.840;3.396;2023-03-16T06:05:06;5.90;99.90
28193;DHT22;15473;50.840;3.396;2023-03-16T06:08:00;5.90;99.90
28193;DHT22;15473;50.840;3.396;2023-03-16T06:10:53;5.90;99.90
28193;DHT22;15473;50.840;3.396;2023-03-16T06:13:40;5.90;99.90
28193;DHT22;15473;50.840;3.396;2023-03-16T06:16:27;6.00;99.90
28193;DHT22;15473;50.840;3.396;2023-03-16T06:19:13;6.00;99.90
28193;DHT22;15473;50.840;3.396;2023-03-16T06:22:06;6.00;99.90
28193;DHT22;15473;50.840;3.396;2023-03-16T06:25:00;6.10;99.90
28193;DHT22;15473;50.840;3.396;2023-03-16T06:27:53;6.10;99.90
28193;DHT22;15473;50.840;3.396;2023-03-16T06:30:40;6.20;99.90
28193;DHT22;15473;50.840;3.396;2023-03-16T06:33:27;6.20;99.90
28193;DHT22;15473;50.840;3.396;2023-03-16T06:36:20;6.20;99.90
28193;DHT22;15473;50.840;3.396;2023-03-16T06:39:08;6.30;99.90
28193;DHT22;15473;50.840;3.396;2023-03-16T06:41:54;6.40;99.90
28193;DHT22;15473;50.840;3.396;2023-03-16T06:44:45;6.40;99.90
28193;DHT22;15473;50.840;3.396;2023-03-16T06:47:38;6.50;99.90
28193;DHT22;15473;50.840;3.396;2023-03-16T06:50:31;6.60;99.90
28193;DHT22;15473;50.840;3.396;2023-03-16T06:53:19;6.70;99.90
28193;DHT22;15473;50.840;3.396;2023-03-16T06:56:06;6.90;99.90
28193;DHT22;15473;50.840;3.396;2023-03-16T06:59:01;7.00;99.90
28193;DHT22;15473;50.840;3.396;2023-03-16T07:01:54;7.30;99.90
28193;DHT22;15473;50.840;3.396;2023-03-16T07:04:40;7.50;99.90
28193;DHT22;15473;50.840;3.396;2023-03-16T07:07:28;7.70;99.90
28193;DHT22;15473;50.840;3.396;2023-03-16T07:10:25;7.90;99.90
28193;DHT22;15473;50.840;3.396;2023-03-16T07:13:18;8.10;99.90
28193;DHT22;15473;50.840;3.396;2023-03-16T07:16:05;8.30;99.90
28193;DHT22;15473;50.840;3.396;2023-03-16T07:18:53;8.50;99.90
28193;DHT22;15473;50.840;3.396;2023-03-16T07:21:40;8.60;99.90
28193;DHT22;15473;50.840;3.396;2023-03-16T07:24:33;8.70;99.90
28193;DHT22;15473;50.840;3.396;2023-03-16T07:27:26;8.90;99.90
28193;DHT22;15473;50.840;3.396;2023-03-16T07:30:14;9.00;99.90
28193;DHT22;15473;50.840;3.396;2023-03-16T07:33:00;9.10;99.90
28193;DHT22;15473;50.840;3.396;2023-03-16T07:35:53;9.30;99.90
28193;DHT22;15473;50.840;3.396;2023-03-16T07:38:41;9.40;99.90
28193;DHT22;15473;50.840;3.396;2023-03-16T07:41:27;9.60;99.90
28193;DHT22;15473;50.840;3.396;2023-03-16T07:44:18;9.70;99.90
28193;DHT22;15473;50.840;3.396;2023-03-16T07:47:05;9.80;99.90
28193;DHT22;15473;50.840;3.396;2023-03-16T07:49:57;9.90;99.90
28193;DHT22;15473;50.840;3.396;2023-03-16T07:52:51;10.10;99.90
28193;DHT22;15473;50.840;3.396;2023-03-16T07:55:38;10.20;99.90
28193;DHT22;15473;50.840;3.396;2023-03-16T08:01:39;10.40;99.90
28193;DHT22;15473;50.840;3.396;2023-03-16T08:04:26;10.50;99.90
28193;DHT22;15473;50.840;3.396;2023-03-16T08:07:13;10.70;99.90
28193;DHT22;15473;50.840;3.396;2023-03-16T08:10:04;10.80;99.90
28193;DHT22;15473;50.840;3.396;2023-03-16T08:12:51;11.00;99.90
28193;DHT22;15473;50.840;3.396;2023-03-16T08:15:48;11.20;99.90
28193;DHT22;15473;50.840;3.396;2023-03-16T08:18:36;11.40;99.90
28193;DHT22;15473;50.840;3.396;2023-03-16T08:21:28;11.60;99.90
28193;DHT22;15473;50.840;3.396;2023-03-16T08:24:15;11.70;99.90
28193;DHT22;15473;50.840;3.396;2023-03-16T08:27:08;11.90;99.90
28193;DHT22;15473;50.840;3.396;2023-03-16T08:29:57;12.10;99.90
28193;DHT22;15473;50.840;3.396;2023-03-16T08:32:45;12.20;99.90
28193;DHT22;15473;50.840;3.396;2023-03-16T08:35:31;12.30;99.90
28193;DHT22;15473;50.840;3.396;2023-03-16T08:38:25;12.40;99.90
28193;DHT22;15473;50.840;3.396;2023-03-16T08:41:13;12.50;99.90
28193;DHT22;15473;50.840;3.396;2023-03-16T08:44:03;12.60;99.90
28193;DHT22;15473;50.840;3.396;2023-03-16T08:46:56;12.70;99.90
28193;DHT22;15473;50.840;3.396;2023-03-16T08:49:44;12.80;99.90
28193;DHT22;15473;50.840;3.396;2023-03-16T08:52:31;12.90;99.90
28193;DHT22;15473;50.840;3.396;2023-03-16T08:55:18;13.00;99.90
28193;DHT22;15473;50.840;3.396;2023-03-16T08:58:04;13.20;99.90
28193;DHT22;15473;50.840;3.396;2023-03-16T09:00:50;13.30;99.90
28193;DHT22;15473;50.840;3.396;2023-03-16T09:03:36;13.50;99.90
28193;DHT22;15473;50.840;3.396;2023-03-16T09:06:21;13.80;99.90
28193;DHT22;15473;50.840;3.396;2023-03-16T09:09:08;14.10;99.90
28193;DHT22;15473;50.840;3.396;2023-03-16T09:12:02;14.40;99.90
28193;DHT22;15473;50.840;3.396;2023-03-16T09:14:52;14.60;99.90
28193;DHT22;15473;50.840;3.396;2023-03-16T09:17:43;14.70;99.90
28193;DHT22;15473;50.840;3.396;2023-03-16T09:20:30;14.70;99.90
28193;DHT22;15473;50.840;3.396;2023-03-16T09:23:23;14.80;99.90
28193;DHT22;15473;50.840;3.396;2023-03-16T09:26:13;14.80;99.90
28193;DHT22;15473;50.840;3.396;2023-03-16T09:29:07;15.00;99.90
28193;DHT22;15473;50.840;3.396;2023-03-16T09:31:52;15.30;99.90
28193;DHT22;15473;50.840;3.396;2023-03-16T09:34:39;15.60;99.90
28193;DHT22;15473;50.840;3.396;2023-03-16T09:37:33;16.10;99.90
28193;DHT22;15473;50.840;3.396;2023-03-16T09:40:25;16.40;99.90
28193;DHT22;15473;50.840;3.396;2023-03-16T09:43:37;16.80;99.90
28193;DHT22;15473;50.840;3.396;2023-03-16T09:46:46;17.00;99.90
28193;DHT22;15473;50.840;3.396;2023-03-16T09:53:21;18.90;99.90
28193;DHT22;15473;50.840;3.396;2023-03-16T09:56:13;19.80;99.90
28193;DHT22;15473;50.840;3.396;2023-03-16T09:58:56;21.20;99.90
28193;DHT22;15473;50.840;3.396;2023-03-16T10:05:23;22.80;99.90
28193;DHT22;15473;50.840;3.396;2023-03-16T10:08:40;23.20;99.90
28193;DHT22;15473;50.840;3.396;2023-03-16T10:11:45;23.70;99.90
28193;DHT22;15473;50.840;3.396;2023-03-16T10:14:56;24.60;99.90
28193;DHT22;15473;50.840;3.396;2023-03-16T10:18:02;24.70;99.90
28193;DHT22;15473;50.840;3.396;2023-03-16T10:20:50;24.20;99.90
28193;DHT22;15473;50.840;3.396;2023-03-16T10:23:47;23.70;99.90
28193;DHT22;15473;50.840;3.396;2023-03-16T10:26:38;23.00;99.90
28193;DHT22;15473;50.840;3.396;2023-03-16T10:29:28;22.90;99.90
28193;DHT22;15473;50.840;3.396;2023-03-16T10:32:18;22.70;99.90
28193;DHT22;15473;50.840;3.396;2023-03-16T10:35:26;22.90;99.90
28193;DHT22;15473;50.840;3.396;2023-03-16T10:41:31;23.20;99.90
28193;DHT22;15473;50.840;3.396;2023-03-16T10:44:25;23.40;99.90
28193;DHT22;15473;50.840;3.396;2023-03-16T10:47:27;23.70;99.90
28193;DHT22;15473;50.840;3.396;2023-03-16T10:50:13;23.50;99.90
28193;DHT22;15473;50.840;3.396;2023-03-16T10:53:03;23.00;99.90
28193;DHT22;15473;50.840;3.396;2023-03-16T10:56:07;22.80;99.90
28193;DHT22;15473;50.840;3.396;2023-03-16T10:58:42;22.60;99.90
28193;DHT22;15473;50.840;3.396;2023-03-16T11:01:29;22.50;99.90
28193;DHT22;15473;50.840;3.396;2023-03-16T11:04:17;22.30;99.90
28193;DHT22;15473;50.840;3.396;2023-03-16T11:07:06;22.30;99.90
28193;DHT22;15473;50.840;3.396;2023-03-16T11:09:58;22.80;99.90
28193;DHT22;15473;50.840;3.396;2023-03-16T11:12:52;23.80;99.90
28193;DHT22;15473;50.840;3.396;2023-03-16T11:15:46;24.60;99.90
28193;DHT22;15473;50.840;3.396;2023-03-16T11:18:37;26.50;99.90
28193;DHT22;15473;50.840;3.396;2023-03-16T11:24:44;29.10;99.90
28193;DHT22;15473;50.840;3.396;2023-03-16T11:33:33;32.10;99.90
28193;DHT22;15473;50.840;3.396;2023-03-16T11:42:37;33.70;99.90
28193;DHT22;15473;50.840;3.396;2023-03-16T11:45:48;34.00;99.10
28193;DHT22;15473;50.840;3.396;2023-03-16T11:55:38;34.30;96.80
28193;DHT22;15473;50.840;3.396;2023-03-16T12:07:19;32.10;96.80
28193;DHT22;15473;50.840;3.396;2023-03-16T12:16:18;31.00;98.10
28193;DHT22;15473;50.840;3.396;2023-03-16T12:22:30;30.50;98.30
28193;DHT22;15473;50.840;3.396;2023-03-16T12:25:44;30.40;98.20
28193;DHT22;15473;50.840;3.396;2023-03-16T12:28:31;30.10;99.10
28193;DHT22;15473;50.840;3.396;2023-03-16T12:34:53;29.90;99.10
28193;DHT22;15473;50.840;3.396;2023-03-16T12:37:52;29.80;98.60
28193;DHT22;15473;50.840;3.396;2023-03-16T12:44:02;29.70;95.70
28193;DHT22;15473;50.840;3.396;2023-03-16T12:53:42;27.20;93.00
28193;DHT22;15473;50.840;3.396;2023-03-16T12:56:42;26.80;93.00
28193;DHT22;15473;50.840;3.396;2023-03-16T12:59:24;26.50;93.00
28193;DHT22;15473;50.840;3.396;2023-03-16T13:02:23;26.50;92.80
28193;DHT22;15473;50.840;3.396;2023-03-16T13:05:15;26.40;93.20
28193;DHT22;15473;50.840;3.396;2023-03-16T13:08:13;26.50;93.70
28193;DHT22;15473;50.840;3.396;2023-03-16T13:14:29;26.20;93.60
28193;DHT22;15473;50.840;3.396;2023-03-16T13:20:26;25.80;93.80
28193;DHT22;15473;50.840;3.396;2023-03-16T13:23:18;26.10;92.70
28193;DHT22;15473;50.840;3.396;2023-03-16T13:26:15;26.30;92.00
28193;DHT22;15473;50.840;3.396;2023-03-16T13:29:50;25.70;92.10
28193;DHT22;15473;50.840;3.396;2023-03-16T13:32:09;24.90;92.60
28193;DHT22;15473;50.840;3.396;2023-03-16T13:35:00;24.80;93.10
28193;DHT22;15473;50.840;3.396;2023-03-16T13:37:49;24.90;93.30
28193;DHT22;15473;50.840;3.396;2023-03-16T13:43:52;25.00;93.10
28193;DHT22;15473;50.840;3.396;2023-03-16T13:46:47;25.00;93.00
28193;DHT22;15473;50.840;3.396;2023-03-16T13:49:53;25.20;92.40
28193;DHT22;15473;50.840;3.396;2023-03-16T13:52:39;24.90;93.10
28193;DHT22;15473;50.840;3.396;2023-03-16T13:55:30;24.20;93.80
28193;DHT22;15473;50.840;3.396;2023-03-16T14:04:46;22.30;95.20
28193;DHT22;15473;50.840;3.396;2023-03-16T14:07:35;21.60;96.20
28193;DHT22;15473;50.840;3.396;2023-03-16T14:10:21;21.20;96.10
28193;DHT22;15473;50.840;3.396;2023-03-16T14:16:23;21.50;96.30
28193;DHT22;15473;50.840;3.396;2023-03-16T14:19:19;22.00;95.90
28193;DHT22;15473;50.840;3.396;2023-03-16T14:22:18;22.40;95.50
28193;DHT22;15473;50.840;3.396;2023-03-16T14:25:06;22.50;95.80
28193;DHT22;15473;50.840;3.396;2023-03-16T14:28:01;22.80;96.00
28193;DHT22;15473;50.840;3.396;2023-03-16T14:31:08;23.20;95.60
28193;DHT22;15473;50.840;3.396;2023-03-16T14:33:58;23.40;94.90
28193;DHT22;15473;50.840;3.396;2023-03-16T14:36:42;23.50;96.10
28193;DHT22;15473;50.840;3.396;2023-03-16T14:39:30;23.60;94.90
28193;DHT22;15473;50.840;3.396;2023-03-16T14:42:26;23.70;95.40
28193;DHT22;15473;50.840;3.396;2023-03-16T14:45:24;23.90;94.10
28193;DHT22;15473;50.840;3.396;2023-03-16T14:48:19;23.80;94.60
28193;DHT22;15473;50.840;3.396;2023-03-16T14:51:10;23.90;93.80
28193;DHT22;15473;50.840;3.396;2023-03-16T14:53:57;23.90;93.90
28193;DHT22;15473;50.840;3.396;2023-03-16T14:56:49;23.90;93.90
28193;DHT22;15473;50.840;3.396;2023-03-16T14:59:36;23.70;93.90
28193;DHT22;15473;50.840;3.396;2023-03-16T15:02:28;23.50;94.40
28193;DHT22;15473;50.840;3.396;2023-03-16T15:05:23;23.60;95.50
28193;DHT22;15473;50.840;3.396;2023-03-16T15:08:23;23.70;94.70
28193;DHT22;15473;50.840;3.396;2023-03-16T15:11:15;23.20;94.70
28193;DHT22;15473;50.840;3.396;2023-03-16T15:14:07;22.70;94.90
28193;DHT22;15473;50.840;3.396;2023-03-16T15:17:12;22.40;95.30
28193;DHT22;15473;50.840;3.396;2023-03-16T15:19:59;21.80;95.40
28193;DHT22;15473;50.840;3.396;2023-03-16T15:22:47;21.20;95.50
28193;DHT22;15473;50.840;3.396;2023-03-16T15:25:38;20.70;96.30
28193;DHT22;15473;50.840;3.396;2023-03-16T15:28:29;20.30;97.40
28193;DHT22;15473;50.840;3.396;2023-03-16T15:31:17;20.10;97.80
28193;DHT22;15473;50.840;3.396;2023-03-16T15:34:11;20.10;98.00
28193;DHT22;15473;50.840;3.396;2023-03-16T15:37:04;20.30;97.80
28193;DHT22;15473;50.840;3.396;2023-03-16T15:39:51;20.30;97.60
28193;DHT22;15473;50.840;3.396;2023-03-16T15:42:44;20.10;97.60
28193;DHT22;15473;50.840;3.396;2023-03-16T15:45:30;20.00;98.50
28193;DHT22;15473;50.840;3.396;2023-03-16T15:48:17;19.90;97.50
28193;DHT22;15473;50.840;3.396;2023-03-16T15:51:06;19.80;97.80
28193;DHT22;15473;50.840;3.396;2023-03-16T15:54:00;19.70;98.00
28193;DHT22;15473;50.840;3.396;2023-03-16T15:56:47;19.60;98.20
28193;DHT22;15473;50.840;3.396;2023-03-16T15:59:35;19.30;97.90
28193;DHT22;15473;50.840;3.396;2023-03-16T16:05:31;19.00;98.00
28193;DHT22;15473;50.840;3.396;2023-03-16T16:08:18;18.70;98.60
28193;DHT22;15473;50.840;3.396;2023-03-16T16:11:14;18.40;98.10
28193;DHT22;15473;50.840;3.396;2023-03-16T16:14:03;18.00;98.30
28193;DHT22;15473;50.840;3.396;2023-03-16T16:16:49;17.60;99.50
28193;DHT22;15473;50.840;3.396;2023-03-16T16:19:43;17.20;99.90
28193;DHT22;15473;50.840;3.396;2023-03-16T16:22:36;16.80;99.90
28193;DHT22;15473;50.840;3.396;2023-03-16T16:28:38;16.20;99.90
28193;DHT22;15473;50.840;3.396;2023-03-16T16:31:49;15.90;99.90
28193;DHT22;15473;50.840;3.396;2023-03-16T16:34:36;15.70;99.90
28193;DHT22;15473;50.840;3.396;2023-03-16T16:37:24;15.50;99.90
28193;DHT22;15473;50.840;3.396;2023-03-16T16:46:48;15.10;99.90
28193;DHT22;15473;50.840;3.396;2023-03-16T16:49:35;14.80;99.90
28193;DHT22;15473;50.840;3.396;2023-03-16T16:52:22;14.70;99.90
28193;DHT22;15473;50.840;3.396;2023-03-16T16:55:12;14.50;99.90
28193;DHT22;15473;50.840;3.396;2023-03-16T16:58:00;14.40;99.90
28193;DHT22;15473;50.840;3.396;2023-03-16T17:00:55;14.20;99.90
28193;DHT22;15473;50.840;3.396;2023-03-16T17:03:43;14.10;99.90
28193;DHT22;15473;50.840;3.396;2023-03-16T17:06:33;14.00;99.90
28193;DHT22;15473;50.840;3.396;2023-03-16T17:09:22;13.90;99.90
28193;DHT22;15473;50.840;3.396;2023-03-16T17:12:21;13.80;99.90
28193;DHT22;15473;50.840;3.396;2023-03-16T17:18:25;13.60;99.90
28193;DHT22;15473;50.840;3.396;2023-03-16T17:21:21;13.50;99.90
28193;DHT22;15473;50.840;3.396;2023-03-16T17:24:15;13.40;99.90
28193;DHT22;15473;50.840;3.396;2023-03-16T17:27:10;13.30;99.90
28193;DHT22;15473;50.840;3.396;2023-03-16T17:29:58;13.20;99.90
28193;DHT22;15473;50.840;3.396;2023-03-16T17:32:47;13.00;99.90
28193;DHT22;15473;50.840;3.396;2023-03-16T17:35:36;12.90;99.90
28193;DHT22;15473;50.840;3.396;2023-03-16T17:38:23;12.80;99.90
28193;DHT22;15473;50.840;3.396;2023-03-16T17:41:22;12.60;99.90
28193;DHT22;15473;50.840;3.396;2023-03-16T17:44:12;12.50;99.90
28193;DHT22;15473;50.840;3.396;2023-03-16T17:47:00;12.40;99.90
28193;DHT22;15473;50.840;3.396;2023-03-16T17:49:46;12.30;99.90
28193;DHT22;15473;50.840;3.396;2023-03-16T17:52:33;12.20;99.90
28193;DHT22;15473;50.840;3.396;2023-03-16T17:55:22;12.00;99.90
28193;DHT22;15473;50.840;3.396;2023-03-16T17:58:23;12.00;99.90
28193;DHT22;15473;50.840;3.396;2023-03-16T18:01:11;11.90;99.90
28193;DHT22;15473;50.840;3.396;2023-03-16T18:04:24;11.70;99.90
28193;DHT22;15473;50.840;3.396;2023-03-16T18:07:16;11.60;99.90
28193;DHT22;15473;50.840;3.396;2023-03-16T18:10:04;11.50;99.90
28193;DHT22;15473;50.840;3.396;2023-03-16T18:12:56;11.40;99.90
28193;DHT22;15473;50.840;3.396;2023-03-16T18:18:56;11.30;99.90
28193;DHT22;15473;50.840;3.396;2023-03-16T18:21:54;11.20;99.90
28193;DHT22;15473;50.840;3.396;2023-03-16T18:24:43;11.10;99.90
28193;DHT22;15473;50.840;3.396;2023-03-16T18:27:37;11.00;99.90
28193;DHT22;15473;50.840;3.396;2023-03-16T18:30:31;11.00;99.90
28193;DHT22;15473;50.840;3.396;2023-03-16T18:33:30;10.90;99.90
28193;DHT22;15473;50.840;3.396;2023-03-16T18:36:21;10.90;99.90
28193;DHT22;15473;50.840;3.396;2023-03-16T18:39:13;10.80;99.90
28193;DHT22;15473;50.840;3.396;2023-03-16T18:42:05;10.80;99.90
28193;DHT22;15473;50.840;3.396;2023-03-16T18:44:52;10.80;99.90
28193;DHT22;15473;50.840;3.396;2023-03-16T18:47:40;10.70;99.90
28193;DHT22;15473;50.840;3.396;2023-03-16T18:50:28;10.70;99.90
28193;DHT22;15473;50.840;3.396;2023-03-16T18:53:22;10.70;99.90
28193;DHT22;15473;50.840;3.396;2023-03-16T18:56:27;10.70;99.90
28193;DHT22;15473;50.840;3.396;2023-03-16T18:59:15;10.60;99.90
28193;DHT22;15473;50.840;3.396;2023-03-16T19:02:02;10.60;99.90
28193;DHT22;15473;50.840;3.396;2023-03-16T19:04:43;10.60;99.90
28193;DHT22;15473;50.840;3.396;2023-03-16T19:07:39;10.50;99.90
28193;DHT22;15473;50.840;3.396;2023-03-16T19:10:32;10.50;99.90
28193;DHT22;15473;50.840;3.396;2023-03-16T19:13:27;10.40;99.90
28193;DHT22;15473;50.840;3.396;2023-03-16T19:16:21;10.40;99.90
28193;DHT22;15473;50.840;3.396;2023-03-16T19:19:10;10.40;99.90
28193;DHT22;15473;50.840;3.396;2023-03-16T19:22:01;10.40;99.90
28193;DHT22;15473;50.840;3.396;2023-03-16T19:25:02;10.30;99.90
28193;DHT22;15473;50.840;3.396;2023-03-16T19:27:56;10.30;99.90
28193;DHT22;15473;50.840;3.396;2023-03-16T19:30:44;10.30;99.90
28193;DHT22;15473;50.840;3.396;2023-03-16T19:33:32;10.30;99.90
28193;DHT22;15473;50.840;3.396;2023-03-16T19:36:25;10.30;99.90
28193;DHT22;15473;50.840;3.396;2023-03-16T19:39:18;10.30;99.90
28193;DHT22;15473;50.840;3.396;2023-03-16T19:42:18;10.30;99.90
28193;DHT22;15473;50.840;3.396;2023-03-16T19:45:02;10.30;99.90
28193;DHT22;15473;50.840;3.396;2023-03-16T19:47:55;10.30;99.90
28193;DHT22;15473;50.840;3.396;2023-03-16T19:50:42;10.30;99.90
28193;DHT22;15473;50.840;3.396;2023-03-16T19:53:35;10.30;99.90
28193;DHT22;15473;50.840;3.396;2023-03-16T19:56:22;10.20;99.90
28193;DHT22;15473;50.840;3.396;2023-03-16T19:59:10;10.20;99.90
28193;DHT22;15473;50.840;3.396;2023-03-16T20:02:18;10.20;99.90
28193;DHT22;15473;50.840;3.396;2023-03-16T20:05:01;10.20;99.90
28193;DHT22;15473;50.840;3.396;2023-03-16T20:08:18;10.20;99.90
28193;DHT22;15473;50.840;3.396;2023-03-16T20:10:48;10.10;99.90
28193;DHT22;15473;50.840;3.396;2023-03-16T20:13:35;10.10;99.90
28193;DHT22;15473;50.840;3.396;2023-03-16T20:16:24;10.10;99.90
28193;DHT22;15473;50.840;3.396;2023-03-16T20:19:19;10.10;99.90